Columbus Junction, Iowa
Current Conditions -  °F | °C
As of 7:35 PM on Thursday 18 Dec 2014 (Local Time) from KMUT Reporting Station
Overcast Overcast  
Wind Chill: 23°   Ceiling: 4400
Heat Index: 28°   Visibility: 10mi
Dew Point: 19°   Wind: 5mph
Humidity: 69%   Direction: 30°NNE
Pressure: 30.3"   Gusts: NA
Location:  41.28°N, 91.36°W
Report Text: KMUT 190135Z AUTO 03004KT 10SM OVC044 M02/M07 A3030 RMK AO2
Loading
Personal Weather Stations






























Interactive Weather Map New forecast layout! Learn more

10-Day Weather Forecast

Advertisements
Track Severe Weather on mobile